createdAt,value
2018-09-30T00:00:20.104Z,6
2018-09-30T00:05:22.415Z,7
2018-09-30T00:10:24.882Z,7
2018-09-30T00:15:27.329Z,4
2018-09-30T00:20:29.852Z,7
2018-09-30T00:25:32.359Z,8
2018-09-30T00:30:34.804Z,5
2018-09-30T00:35:37.335Z,7
2018-09-30T00:40:39.967Z,4
2018-09-30T00:45:42.136Z,6
2018-09-30T00:50:44.593Z,5
2018-09-30T00:55:47.276Z,8
2018-09-30T01:00:49.503Z,5
2018-09-30T01:05:51.988Z,6
2018-09-30T01:10:54.440Z,5
2018-09-30T01:15:57.162Z,5
2018-09-30T01:20:59.359Z,8
2018-09-30T01:26:01.858Z,6
2018-09-30T01:31:04.309Z,2
2018-09-30T01:36:06.762Z,5
2018-09-30T01:41:09.248Z,2
2018-09-30T01:46:11.680Z,5
2018-09-30T01:51:14.133Z,2
2018-09-30T01:56:17.060Z,6
2018-09-30T02:01:19.241Z,5
2018-09-30T02:06:21.630Z,4
2018-09-30T02:11:24.005Z,4
2018-09-30T02:16:26.431Z,4
2018-09-30T02:21:29.163Z,4
2018-09-30T02:26:31.484Z,4
2018-09-30T02:31:33.852Z,5
2018-09-30T02:36:36.410Z,5
2018-09-30T02:41:38.851Z,4
2018-09-30T02:46:41.222Z,5
2018-09-30T02:51:43.698Z,3
2018-09-30T02:56:46.200Z,3
2018-09-30T03:01:48.676Z,3
2018-09-30T03:06:51.161Z,4
2018-09-30T03:11:53.548Z,4
2018-09-30T03:16:56.029Z,6
2018-09-30T03:21:58.497Z,4
2018-09-30T03:27:00.939Z,4
2018-09-30T03:32:03.483Z,8
2018-09-30T03:37:05.864Z,2
2018-09-30T03:42:08.354Z,3
2018-09-30T03:47:10.791Z,3
2018-09-30T03:52:13.259Z,2
2018-09-30T03:57:15.743Z,7
2018-09-30T04:02:23.243Z,4
2018-09-30T04:07:20.736Z,3
2018-09-30T04:12:23.133Z,3
2018-09-30T04:17:25.714Z,3
2018-09-30T04:22:28.073Z,4
2018-09-30T04:27:30.531Z,2
2018-09-30T04:32:33.021Z,3
2018-09-30T04:37:35.434Z,2
2018-09-30T04:42:37.907Z,2
2018-09-30T04:47:40.439Z,4
2018-09-30T04:52:42.858Z,4
2018-09-30T04:57:45.427Z,5
2018-09-30T05:02:47.742Z,4
2018-09-30T05:07:50.223Z,6
2018-09-30T05:12:52.870Z,2
2018-09-30T05:17:55.137Z,1
2018-09-30T05:22:58.407Z,2
2018-09-30T05:28:00.241Z,2
2018-09-30T05:33:02.529Z,2
2018-09-30T05:38:04.995Z,2
2018-09-30T05:43:07.585Z,3
2018-09-30T05:48:09.921Z,3
2018-09-30T05:53:12.388Z,4
2018-09-30T05:58:14.820Z,3
2018-09-30T06:03:17.277Z,2
2018-09-30T06:13:22.251Z,5
2018-09-30T06:18:24.645Z,2
2018-09-30T06:23:27.108Z,2
2018-09-30T06:28:29.566Z,2
2018-09-30T06:33:32.106Z,3
2018-09-30T06:38:34.517Z,3
2018-09-30T06:43:37.407Z,3
2018-09-30T06:48:39.383Z,2
2018-09-30T06:53:41.859Z,3
2018-09-30T06:58:44.353Z,2
2018-09-30T07:03:46.773Z,5
2018-09-30T07:08:49.253Z,3
2018-09-30T07:13:53.885Z,2
2018-09-30T07:18:54.281Z,2
2018-09-30T07:23:57.035Z,3
2018-09-30T07:28:59.078Z,2
2018-09-30T07:34:01.695Z,2
2018-09-30T07:39:04.038Z,2
2018-09-30T07:44:06.447Z,3
2018-09-30T07:49:08.900Z,2
2018-09-30T07:54:11.405Z,2
2018-09-30T07:59:13.817Z,2
2018-09-30T08:04:16.289Z,2
2018-09-30T08:09:18.992Z,2
2018-09-30T08:14:21.196Z,3
2018-09-30T08:19:23.824Z,2
2018-09-30T08:24:26.205Z,2
2018-09-30T08:29:28.564Z,2
2018-09-30T08:34:31.071Z,1
2018-09-30T08:39:33.590Z,2
2018-09-30T08:44:35.932Z,2
2018-09-30T08:49:38.470Z,3
2018-09-30T08:54:40.840Z,2
2018-09-30T08:59:43.306Z,2
2018-09-30T09:04:45.767Z,1
2018-09-30T09:09:48.262Z,1
2018-09-30T09:14:50.696Z,4
2018-09-30T09:19:53.214Z,3
2018-09-30T09:24:55.637Z,3
2018-09-30T09:29:58.215Z,2
2018-09-30T09:35:00.548Z,1
2018-09-30T09:40:03.143Z,1
2018-09-30T09:50:07.921Z,2
2018-09-30T09:55:10.363Z,1
2018-09-30T10:00:13.001Z,3
2018-09-30T10:05:15.470Z,2
2018-09-30T10:10:17.748Z,3
2018-09-30T10:15:20.193Z,2
2018-09-30T10:20:22.678Z,1
2018-09-30T10:25:25.087Z,2
2018-09-30T10:30:27.568Z,2
2018-09-30T10:35:30.026Z,1
2018-09-30T10:40:32.493Z,2
2018-09-30T10:45:34.961Z,2
2018-09-30T10:50:37.436Z,1
2018-09-30T10:55:39.881Z,1
2018-09-30T11:00:42.290Z,3
2018-09-30T11:05:44.826Z,2
2018-09-30T11:10:47.226Z,1
2018-09-30T11:15:49.762Z,2
2018-09-30T11:20:52.228Z,1
2018-09-30T11:25:55.093Z,1
2018-09-30T11:30:57.312Z,1
2018-09-30T11:35:59.718Z,2
2018-09-30T11:41:01.977Z,1
2018-09-30T11:46:05.095Z,2
2018-09-30T11:51:06.883Z,2
2018-09-30T11:56:09.779Z,3
2018-09-30T12:01:11.912Z,2
2018-09-30T12:06:14.510Z,1
2018-09-30T12:11:16.720Z,1
2018-09-30T12:16:19.165Z,2
2018-09-30T12:21:21.693Z,2
2018-09-30T12:26:24.099Z,2
2018-09-30T12:31:26.580Z,2
2018-09-30T12:36:29.005Z,3
2018-09-30T12:41:31.554Z,2
2018-09-30T12:46:33.940Z,5
2018-09-30T12:51:36.363Z,3
2018-09-30T12:56:38.834Z,6
2018-09-30T13:01:41.311Z,3
2018-09-30T13:06:43.761Z,4
2018-09-30T13:11:46.523Z,4
2018-09-30T13:16:48.868Z,7
2018-09-30T13:21:51.229Z,7
2018-09-30T13:26:53.780Z,7
2018-09-30T13:31:56.159Z,9
2018-09-30T13:36:58.502Z,4
2018-09-30T13:42:00.957Z,5
2018-09-30T13:47:03.453Z,7
2018-09-30T13:52:05.897Z,9
2018-09-30T13:57:08.374Z,5
2018-09-30T14:02:10.786Z,5
2018-09-30T14:07:13.235Z,5
2018-09-30T14:12:15.709Z,4
2018-09-30T14:17:18.155Z,4
2018-09-30T14:22:20.757Z,4
2018-09-30T14:27:23.342Z,6
2018-09-30T14:32:25.558Z,5
2018-09-30T14:37:28.008Z,6
2018-09-30T14:42:30.462Z,7
2018-09-30T14:47:32.916Z,5
2018-09-30T14:52:35.373Z,5
2018-09-30T14:57:37.815Z,5
2018-09-30T15:02:40.885Z,6
2018-09-30T15:07:42.795Z,7
2018-09-30T15:12:45.443Z,6
2018-09-30T15:17:47.666Z,6
2018-09-30T15:22:50.168Z,5
2018-09-30T15:27:52.578Z,4
2018-09-30T15:37:57.489Z,7
2018-09-30T15:43:00.011Z,8
2018-09-30T15:48:02.423Z,6
2018-09-30T15:53:04.884Z,8
2018-09-30T15:58:07.323Z,5
2018-09-30T16:03:09.783Z,5
2018-09-30T16:08:12.545Z,10
2018-09-30T16:13:14.689Z,5
2018-09-30T16:18:17.152Z,7
2018-09-30T16:23:19.609Z,7
2018-09-30T16:28:22.133Z,5
2018-09-30T16:33:24.907Z,8
2018-09-30T16:38:27.003Z,5
2018-09-30T16:43:29.440Z,8
